Tonsina, Alaska
Current Conditions -  °F | °C
As of 2:53 PM on Monday 20 Oct 2014 (Local Time) from PAGK Reporting Station
Light Snow Light Snow  
Wind Chill: 21°   Ceiling: 1500
Heat Index: 21°   Visibility: 0.75mi
Dew Point: 19°   Wind: 0mph
Humidity: 92%   Direction: NA
Pressure: 29.12"   Gusts: NA
Location:  61.66°N, 145.18°W
Report Text: PAGK 202253Z AUTO 00000KT 3/4SM -SN BR VV015 M06/M07 A2912 RMK AO2 SLP901 P0005 T10611072 TSNO
Loading
Personal Weather Stations






























Interactive Weather Map
Tropical Storm Tracking
New forecast layout! Learn more

10-Day Weather Forecast

Advertisements
Track Severe Weather on mobile